createdAt,value
2022-08-04T00:01:08.511Z,20.10
2022-08-04T00:04:03.029Z,20.10
2022-08-04T00:07:00.930Z,20.00
2022-08-04T00:09:51.891Z,20.00
2022-08-04T00:12:22.178Z,19.90
2022-08-04T00:15:00.349Z,19.90
2022-08-04T00:17:34.379Z,19.80
2022-08-04T00:20:03.312Z,19.80
2022-08-04T00:22:31.219Z,19.70
2022-08-04T00:25:01.397Z,19.70
2022-08-04T00:27:30.207Z,19.70
2022-08-04T00:29:58.024Z,19.70
2022-08-04T00:32:33.894Z,19.60
2022-08-04T00:35:01.288Z,19.60
2022-08-04T00:37:28.247Z,19.50
2022-08-04T00:39:56.124Z,19.60
2022-08-04T00:43:01.092Z,19.40
2022-08-04T00:46:15.011Z,19.50
2022-08-04T00:49:16.735Z,19.40
2022-08-04T00:52:31.326Z,19.40
2022-08-04T00:55:07.087Z,19.30
2022-08-04T00:57:55.576Z,19.30
2022-08-04T01:00:22.495Z,19.30
2022-08-04T01:03:07.653Z,19.20
2022-08-04T01:05:58.514Z,19.20
2022-08-04T01:08:30.432Z,19.10
2022-08-04T01:11:25.408Z,19.10
2022-08-04T01:14:21.906Z,19.00
2022-08-04T01:16:58.011Z,19.00
2022-08-04T01:19:51.381Z,18.90
2022-08-04T01:22:38.096Z,18.90
2022-08-04T01:25:29.450Z,18.80
2022-08-04T01:28:11.199Z,18.80
2022-08-04T01:30:43.220Z,18.80
2022-08-04T01:33:13.875Z,18.70
2022-08-04T01:35:48.978Z,18.70
2022-08-04T01:38:24.352Z,18.60
2022-08-04T01:40:57.185Z,18.60
2022-08-04T01:43:24.308Z,18.60
2022-08-04T01:45:59.902Z,18.60
2022-08-04T01:48:28.133Z,18.50
2022-08-04T01:51:09.902Z,18.50
2022-08-04T01:53:42.096Z,18.50
2022-08-04T01:56:11.583Z,18.50
2022-08-04T01:58:40.494Z,18.50
2022-08-04T02:01:09.754Z,18.40
2022-08-04T02:04:21.834Z,18.40
2022-08-04T02:06:52.261Z,18.30
2022-08-04T02:09:54.261Z,18.30
2022-08-04T02:12:52.220Z,18.30
2022-08-04T02:15:39.510Z,18.20
2022-08-04T02:18:19.007Z,18.10
2022-08-04T02:20:48.971Z,18.10
2022-08-04T02:23:29.081Z,18.10
2022-08-04T02:26:03.202Z,18.10
2022-08-04T02:28:45.504Z,18.10
2022-08-04T02:31:35.989Z,18.00
2022-08-04T02:34:28.739Z,18.10
2022-08-04T02:36:56.290Z,18.00
2022-08-04T02:39:24.385Z,18.00
2022-08-04T02:41:55.497Z,17.90
2022-08-04T02:44:23.532Z,17.90
2022-08-04T02:46:54.368Z,17.80
2022-08-04T02:49:24.814Z,17.80
2022-08-04T02:52:01.285Z,17.80
2022-08-04T02:54:33.570Z,17.70
2022-08-04T02:57:02.059Z,17.80
2022-08-04T02:59:37.378Z,17.80
2022-08-04T03:02:04.188Z,17.70
2022-08-04T03:04:51.136Z,17.60
2022-08-04T03:07:23.763Z,17.60
2022-08-04T03:10:18.344Z,17.60
2022-08-04T03:13:21.984Z,17.60
2022-08-04T03:15:54.477Z,17.50
2022-08-04T03:18:49.201Z,17.50
2022-08-04T03:21:25.769Z,17.40
2022-08-04T03:24:21.145Z,17.40
2022-08-04T03:27:16.420Z,17.40
2022-08-04T03:30:08.968Z,17.40
2022-08-04T03:33:06.562Z,17.40
2022-08-04T03:35:45.524Z,17.40
2022-08-04T03:38:26.972Z,17.40
2022-08-04T03:41:55.024Z,17.40
2022-08-04T03:44:19.678Z,17.30
2022-08-04T03:47:07.523Z,17.30
2022-08-04T03:49:46.256Z,17.30
2022-08-04T03:52:52.735Z,17.30
2022-08-04T03:55:29.957Z,17.20
2022-08-04T03:58:30.546Z,17.30
2022-08-04T04:02:03.040Z,17.20
2022-08-04T04:05:00.951Z,17.20
2022-08-04T04:07:47.428Z,17.20
2022-08-04T04:10:31.422Z,17.10
2022-08-04T04:13:22.782Z,17.10
2022-08-04T04:16:07.018Z,17.20
2022-08-04T04:19:04.143Z,17.20
2022-08-04T04:21:51.986Z,17.20
2022-08-04T04:24:42.630Z,17.10
2022-08-04T04:27:45.479Z,17.10
2022-08-04T04:30:53.524Z,17.20
2022-08-04T04:33:44.201Z,17.20
2022-08-04T04:36:16.617Z,17.20
2022-08-04T04:39:09.443Z,17.20
2022-08-04T04:42:05.859Z,17.20
2022-08-04T04:44:55.731Z,17.20
2022-08-04T04:48:08.726Z,17.30
2022-08-04T04:50:50.693Z,17.30
2022-08-04T04:53:27.547Z,17.40
2022-08-04T04:56:03.325Z,17.40
2022-08-04T04:58:33.150Z,17.60
2022-08-04T05:01:18.004Z,17.60
2022-08-04T05:04:22.683Z,17.70
2022-08-04T05:07:10.396Z,17.70
2022-08-04T05:09:49.905Z,17.80
2022-08-04T05:14:34.409Z,18.00
2022-08-04T05:15:35.705Z,18.10
2022-08-04T05:18:06.382Z,18.20
2022-08-04T05:20:41.255Z,18.40
2022-08-04T05:23:26.515Z,18.50
2022-08-04T05:26:00.297Z,18.70
2022-08-04T05:28:34.334Z,18.90
2022-08-04T05:31:06.252Z,19.00
2022-08-04T05:33:40.674Z,19.10
2022-08-04T05:36:21.068Z,19.20
2022-08-04T05:38:55.399Z,19.30
2022-08-04T05:41:22.828Z,19.50
2022-08-04T05:44:00.291Z,19.50
2022-08-04T05:46:27.777Z,19.60
2022-08-04T05:48:55.464Z,19.70
2022-08-04T05:51:22.999Z,19.90
2022-08-04T05:53:51.493Z,20.00
2022-08-04T05:56:18.357Z,20.10
2022-08-04T05:58:46.990Z,20.20
2022-08-04T06:01:17.052Z,20.40
2022-08-04T06:03:45.373Z,20.50
2022-08-04T06:06:13.988Z,20.60
2022-08-04T06:08:40.791Z,20.80
2022-08-04T06:11:09.575Z,20.90
2022-08-04T06:13:50.906Z,21.00
2022-08-04T06:16:30.281Z,21.10
2022-08-04T06:20:02.029Z,21.20
2022-08-04T06:21:49.667Z,21.30
2022-08-04T06:24:19.886Z,21.50
2022-08-04T06:26:49.258Z,21.60
2022-08-04T06:29:35.189Z,21.80
2022-08-04T06:32:29.979Z,21.90
2022-08-04T06:35:02.118Z,21.90
2022-08-04T06:37:42.544Z,22.00
2022-08-04T06:40:30.899Z,22.20
2022-08-04T06:43:01.705Z,22.30
2022-08-04T06:45:29.310Z,22.50
2022-08-04T06:47:57.847Z,22.60
2022-08-04T06:51:29.755Z,22.70
2022-08-04T06:53:12.449Z,22.90
2022-08-04T06:55:41.123Z,23.00
2022-08-04T06:58:08.759Z,23.10
2022-08-04T07:00:37.242Z,23.20
2022-08-04T07:03:04.542Z,23.30
2022-08-04T07:05:31.935Z,23.50
2022-08-04T07:07:59.572Z,23.70
2022-08-04T07:10:30.751Z,23.90
2022-08-04T07:13:01.585Z,24.10
2022-08-04T07:15:28.921Z,24.20
2022-08-04T07:18:02.450Z,24.50
2022-08-04T07:20:34.950Z,24.70
2022-08-04T07:23:03.755Z,24.80
2022-08-04T07:26:12.329Z,25.00
2022-08-04T07:28:17.528Z,25.10
2022-08-04T07:30:45.463Z,25.30
2022-08-04T07:33:12.688Z,25.40
2022-08-04T07:36:06.017Z,25.50
2022-08-04T07:38:27.515Z,25.60
2022-08-04T07:40:55.240Z,25.80
2022-08-04T07:43:22.722Z,25.90
2022-08-04T07:45:49.664Z,26.10
2022-08-04T07:48:18.788Z,26.10
2022-08-04T07:50:46.746Z,26.20
2022-08-04T07:53:52.959Z,26.20
2022-08-04T07:56:02.641Z,26.40
2022-08-04T07:58:30.200Z,26.50
2022-08-04T08:00:57.937Z,26.60
2022-08-04T08:03:25.630Z,26.80
2022-08-04T08:06:17.580Z,27.00
2022-08-04T08:08:40.118Z,27.20
2022-08-04T08:11:11.083Z,27.40
2022-08-04T08:13:38.417Z,27.50
2022-08-04T08:16:05.918Z,27.80
2022-08-04T08:18:32.817Z,28.10
2022-08-04T08:20:59.688Z,28.40
2022-08-04T08:23:26.837Z,28.60
2022-08-04T08:25:53.569Z,28.70
2022-08-04T08:28:20.273Z,28.70
2022-08-04T08:30:52.758Z,28.80
2022-08-04T08:33:21.131Z,28.90
2022-08-04T08:35:57.802Z,28.90
2022-08-04T08:38:54.108Z,28.90
2022-08-04T08:41:52.134Z,29.10
2022-08-04T08:44:37.484Z,29.30
2022-08-04T08:47:13.524Z,29.40
2022-08-04T08:50:27.023Z,29.60
2022-08-04T08:53:31.121Z,29.90
2022-08-04T08:56:12.948Z,29.90
2022-08-04T08:59:15.202Z,29.90
2022-08-04T09:02:19.433Z,29.70
2022-08-04T09:05:12.537Z,29.70
2022-08-04T09:07:48.335Z,29.60
2022-08-04T09:10:39.718Z,29.60
2022-08-04T09:13:13.506Z,29.60
2022-08-04T09:16:08.034Z,29.80
2022-08-04T09:18:43.158Z,30.00
2022-08-04T09:21:33.762Z,30.30
2022-08-04T09:24:36.227Z,30.30
2022-08-04T09:27:03.437Z,30.30
2022-08-04T09:29:53.061Z,30.40
2022-08-04T09:32:56.377Z,30.60
2022-08-04T09:35:31.867Z,30.80
2022-08-04T09:38:16.780Z,31.00
2022-08-04T09:41:20.681Z,31.10
2022-08-04T09:44:52.161Z,31.20
2022-08-04T09:47:39.403Z,31.40
2022-08-04T09:50:39.403Z,31.50
2022-08-04T09:53:28.086Z,31.50
2022-08-04T09:56:08.231Z,31.70
2022-08-04T09:59:01.608Z,31.70
2022-08-04T10:01:31.827Z,31.60
2022-08-04T10:04:03.470Z,31.70
2022-08-04T10:06:51.401Z,31.80
2022-08-04T10:09:32.957Z,32.10
2022-08-04T10:12:13.931Z,32.10
2022-08-04T10:15:06.658Z,32.10
2022-08-04T10:17:52.263Z,32.20
2022-08-04T10:21:00.000Z,32.60
2022-08-04T10:23:55.687Z,32.70
2022-08-04T10:26:55.600Z,33.00
2022-08-04T10:29:47.229Z,33.10
2022-08-04T10:32:43.021Z,33.20
2022-08-04T10:35:13.809Z,33.30
2022-08-04T10:37:56.528Z,33.40
2022-08-04T10:40:37.412Z,33.50
2022-08-04T10:43:22.283Z,33.70
2022-08-04T10:46:01.726Z,33.90
2022-08-04T10:48:54.026Z,33.90
2022-08-04T10:51:57.236Z,33.90
2022-08-04T10:54:56.769Z,33.90
2022-08-04T10:57:36.063Z,33.90
2022-08-04T11:00:09.761Z,33.90
2022-08-04T11:02:59.810Z,34.00
2022-08-04T11:05:44.680Z,34.10
2022-08-04T11:08:35.570Z,34.30
2022-08-04T11:11:07.854Z,34.40
2022-08-04T11:13:46.769Z,34.30
2022-08-04T11:16:44.113Z,34.30
2022-08-04T11:19:43.079Z,34.30
2022-08-04T11:22:23.250Z,34.40
2022-08-04T11:25:13.585Z,34.40
2022-08-04T11:27:47.038Z,34.50
2022-08-04T11:30:15.257Z,34.40
2022-08-04T11:32:52.151Z,34.40
2022-08-04T11:35:29.281Z,34.50
2022-08-04T11:38:30.424Z,34.50
2022-08-04T11:41:05.590Z,34.50
2022-08-04T11:44:02.444Z,34.40
2022-08-04T11:46:40.529Z,34.50
2022-08-04T11:49:56.544Z,34.60
2022-08-04T11:52:26.579Z,34.70
2022-08-04T11:54:55.619Z,34.90
2022-08-04T11:57:35.273Z,34.90
2022-08-04T12:00:07.223Z,35.00
2022-08-04T12:03:18.938Z,35.10
2022-08-04T12:06:06.853Z,35.10
2022-08-04T12:08:45.452Z,35.20
2022-08-04T12:11:28.510Z,35.10
2022-08-04T12:14:03.878Z,35.20
2022-08-04T12:17:10.746Z,35.30
2022-08-04T12:20:04.556Z,35.30
2022-08-04T12:22:47.686Z,35.10
2022-08-04T12:25:19.926Z,35.20
2022-08-04T12:27:51.594Z,35.30
2022-08-04T12:30:59.070Z,35.20
2022-08-04T12:34:03.572Z,35.10
2022-08-04T12:36:35.774Z,35.30
2022-08-04T12:39:17.733Z,35.50
2022-08-04T12:42:22.003Z,35.70
2022-08-04T12:44:54.089Z,35.80
2022-08-04T12:47:29.173Z,35.80
2022-08-04T12:50:02.439Z,35.60
2022-08-04T12:52:59.003Z,35.40
2022-08-04T12:55:23.995Z,35.20
2022-08-04T12:57:53.226Z,34.90
2022-08-04T13:00:29.561Z,35.00
2022-08-04T13:03:09.697Z,35.00
2022-08-04T13:05:39.742Z,35.20
2022-08-04T13:08:07.339Z,35.30
2022-08-04T13:10:39.875Z,35.20
2022-08-04T13:13:13.517Z,35.30
2022-08-04T13:15:47.716Z,35.40
2022-08-04T13:18:29.647Z,35.40
2022-08-04T13:21:19.763Z,35.60
2022-08-04T13:24:19.781Z,35.90
2022-08-04T13:26:55.363Z,35.90
2022-08-04T13:29:57.935Z,36.00
2022-08-04T13:32:20.388Z,36.10
2022-08-04T13:34:52.476Z,36.00
2022-08-04T13:37:26.332Z,35.90
2022-08-04T13:39:55.143Z,35.90
2022-08-04T13:42:23.992Z,36.00
2022-08-04T13:44:56.045Z,36.10
2022-08-04T13:47:35.231Z,36.10
2022-08-04T13:50:20.776Z,36.00
2022-08-04T13:52:50.999Z,36.00
2022-08-04T13:55:25.118Z,35.90
2022-08-04T13:58:03.630Z,35.70
2022-08-04T14:00:58.656Z,35.80
2022-08-04T14:03:27.068Z,35.90
2022-08-04T14:06:31.689Z,36.00
2022-08-04T14:09:01.344Z,36.00
2022-08-04T14:12:07.101Z,35.70
2022-08-04T14:14:31.189Z,35.30
2022-08-04T14:17:17.979Z,35.40
2022-08-04T14:19:50.088Z,35.50
2022-08-04T14:22:25.741Z,35.70
2022-08-04T14:25:16.094Z,35.90
2022-08-04T14:27:47.705Z,35.90
2022-08-04T14:30:40.949Z,35.50
2022-08-04T14:34:02.474Z,35.40
2022-08-04T14:35:59.142Z,35.20
2022-08-04T14:38:52.309Z,35.00
2022-08-04T14:41:27.355Z,34.80
2022-08-04T14:44:00.843Z,34.60
2022-08-04T14:46:36.110Z,34.40
2022-08-04T14:49:10.369Z,34.40
2022-08-04T14:51:42.825Z,34.40
2022-08-04T14:54:17.300Z,34.40
2022-08-04T14:56:53.332Z,34.40
2022-08-04T14:59:20.203Z,34.30
2022-08-04T15:02:00.522Z,34.20
2022-08-04T15:04:31.177Z,34.30
2022-08-04T15:06:58.002Z,34.30
2022-08-04T15:09:25.311Z,34.50
2022-08-04T15:11:52.133Z,34.60
2022-08-04T15:14:36.870Z,34.60
2022-08-04T15:17:12.075Z,34.50
2022-08-04T15:19:39.907Z,34.40
2022-08-04T15:22:07.198Z,34.30
2022-08-04T15:24:44.246Z,34.10
2022-08-04T15:27:16.505Z,34.00
2022-08-04T15:30:00.291Z,33.80
2022-08-04T15:32:33.070Z,33.70
2022-08-04T15:35:06.777Z,33.70
2022-08-04T15:38:00.024Z,33.70
2022-08-04T15:40:35.300Z,33.60
2022-08-04T15:43:30.700Z,33.70
2022-08-04T15:46:32.909Z,33.70
2022-08-04T15:48:48.463Z,33.70
2022-08-04T15:51:32.176Z,33.80
2022-08-04T15:54:02.405Z,33.80
2022-08-04T15:56:32.468Z,33.70
2022-08-04T15:58:59.259Z,33.80
2022-08-04T16:01:27.483Z,33.80
2022-08-04T16:03:59.672Z,33.70
2022-08-04T16:06:28.794Z,33.60
2022-08-04T16:09:01.599Z,33.60
2022-08-04T16:11:33.278Z,33.60
2022-08-04T16:14:02.789Z,33.50
2022-08-04T16:16:39.506Z,33.40
2022-08-04T16:19:42.040Z,33.30
2022-08-04T16:22:12.952Z,33.30
2022-08-04T16:24:41.410Z,33.10
2022-08-04T16:27:09.954Z,32.90
2022-08-04T16:29:47.913Z,32.80
2022-08-04T16:32:23.642Z,32.70
2022-08-04T16:35:01.343Z,32.60
2022-08-04T16:37:37.764Z,32.50
2022-08-04T16:40:34.491Z,32.30
2022-08-04T16:43:06.782Z,32.20
2022-08-04T16:45:46.662Z,32.20
2022-08-04T16:48:16.838Z,32.10
2022-08-04T16:50:49.413Z,32.10
2022-08-04T16:53:52.030Z,32.10
2022-08-04T16:56:06.485Z,32.00
2022-08-04T16:58:36.887Z,31.90
2022-08-04T17:01:32.149Z,31.80
2022-08-04T17:04:04.851Z,31.80
2022-08-04T17:06:40.701Z,31.80
2022-08-04T17:09:14.223Z,31.60
2022-08-04T17:11:42.892Z,31.50
2022-08-04T17:14:10.275Z,31.50
2022-08-04T17:16:40.143Z,31.50
2022-08-04T17:19:23.918Z,31.40
2022-08-04T17:22:06.095Z,31.30
2022-08-04T17:24:40.326Z,31.30
2022-08-04T17:28:09.405Z,31.30
2022-08-04T17:29:54.440Z,31.20
2022-08-04T17:32:22.737Z,31.30
2022-08-04T17:34:52.681Z,31.20
2022-08-04T17:37:41.263Z,31.20
2022-08-04T17:40:22.872Z,31.20
2022-08-04T17:44:01.496Z,31.20
2022-08-04T17:46:15.191Z,31.20
2022-08-04T17:49:16.514Z,31.20
2022-08-04T17:52:05.006Z,31.10
2022-08-04T17:57:22.827Z,31.00
2022-08-04T17:59:56.333Z,30.90
2022-08-04T18:02:33.265Z,30.90
2022-08-04T18:05:06.869Z,30.80
2022-08-04T18:08:39.841Z,30.80
2022-08-04T18:10:44.725Z,30.70
2022-08-04T18:13:27.595Z,30.60
2022-08-04T18:16:04.324Z,30.50
2022-08-04T18:18:31.215Z,30.40
2022-08-04T18:20:59.667Z,30.30
2022-08-04T18:26:17.931Z,30.00
2022-08-04T18:28:44.595Z,29.90
2022-08-04T18:31:11.423Z,29.70
2022-08-04T18:33:43.237Z,29.70
2022-08-04T18:36:36.650Z,29.60
2022-08-04T18:39:13.418Z,29.40
2022-08-04T18:42:01.137Z,29.30
2022-08-04T18:44:32.106Z,29.10
2022-08-04T18:47:19.001Z,29.00
2022-08-04T18:50:58.737Z,28.90
2022-08-04T18:52:35.400Z,28.80
2022-08-04T18:55:09.952Z,28.70
2022-08-04T18:58:00.868Z,28.70
2022-08-04T19:00:26.557Z,28.60
2022-08-04T19:02:55.715Z,28.60
2022-08-04T19:05:24.016Z,28.50
2022-08-04T19:08:32.649Z,28.40
2022-08-04T19:10:54.361Z,28.30
2022-08-04T19:13:34.867Z,28.30
2022-08-04T19:16:02.819Z,28.10
2022-08-04T19:18:32.218Z,28.00
2022-08-04T19:21:00.267Z,28.00
2022-08-04T19:24:28.061Z,27.90
2022-08-04T19:26:28.049Z,27.80
2022-08-04T19:28:56.099Z,27.70
2022-08-04T19:31:28.424Z,27.70
2022-08-04T19:34:07.297Z,27.60
2022-08-04T19:36:34.716Z,27.60
2022-08-04T19:39:11.421Z,27.60
2022-08-04T19:42:06.678Z,27.50
2022-08-04T19:48:17.794Z,27.20
2022-08-04T19:50:10.750Z,27.10
2022-08-04T19:52:39.231Z,26.90
2022-08-04T19:55:10.660Z,26.90
2022-08-04T19:57:46.350Z,26.80
2022-08-04T20:00:17.865Z,26.70
2022-08-04T20:03:01.848Z,26.70
2022-08-04T20:05:52.796Z,26.60
2022-08-04T20:08:17.568Z,26.60
2022-08-04T20:10:46.969Z,26.40
2022-08-04T20:13:19.818Z,26.10
2022-08-04T20:15:57.376Z,25.90
2022-08-04T20:18:36.738Z,25.70
2022-08-04T20:21:19.492Z,25.50
2022-08-04T20:23:51.311Z,25.30
2022-08-04T20:26:20.516Z,25.20
2022-08-04T20:28:52.003Z,25.10
2022-08-04T20:31:19.724Z,25.00
2022-08-04T20:36:34.804Z,24.90
2022-08-04T20:39:03.494Z,24.80
2022-08-04T20:41:36.791Z,24.80
2022-08-04T20:44:10.850Z,24.80
2022-08-04T20:46:37.751Z,24.80
2022-08-04T20:49:04.464Z,24.70
2022-08-04T20:51:31.999Z,24.60
2022-08-04T20:54:01.675Z,24.60
2022-08-04T20:56:30.641Z,24.50
2022-08-04T20:58:59.528Z,24.50
2022-08-04T21:01:29.972Z,24.50
2022-08-04T21:04:27.327Z,24.40
2022-08-04T21:06:56.195Z,24.40
2022-08-04T21:09:36.978Z,24.30
2022-08-04T21:12:07.062Z,24.30
2022-08-04T21:14:34.722Z,24.30
2022-08-04T21:17:03.220Z,24.30
2022-08-04T21:19:31.548Z,24.20
2022-08-04T21:21:58.781Z,24.10
2022-08-04T21:24:26.013Z,24.20
2022-08-04T21:26:56.690Z,24.10
2022-08-04T21:29:34.705Z,24.20
2022-08-04T21:32:02.393Z,24.10
2022-08-04T21:34:38.178Z,24.10
2022-08-04T21:37:09.391Z,24.10
2022-08-04T21:39:50.672Z,24.10
2022-08-04T21:42:28.061Z,24.00
2022-08-04T21:44:57.846Z,24.00
2022-08-04T21:47:24.743Z,23.90
2022-08-04T21:52:38.051Z,23.80
2022-08-04T21:55:06.865Z,23.80
2022-08-04T21:57:34.230Z,23.70
2022-08-04T22:02:54.381Z,23.80
2022-08-04T22:05:22.195Z,23.80
2022-08-04T22:10:35.920Z,23.80
2022-08-04T22:13:06.980Z,23.70
2022-08-04T22:16:05.053Z,23.70
2022-08-04T22:18:24.676Z,23.70
2022-08-04T22:20:54.842Z,23.70
2022-08-04T22:23:24.214Z,23.70
2022-08-04T22:25:55.644Z,23.60
2022-08-04T22:28:27.114Z,23.60
2022-08-04T22:30:56.196Z,23.60
2022-08-04T22:33:23.180Z,23.60
2022-08-04T22:35:50.162Z,23.60
2022-08-04T22:38:28.982Z,23.60
2022-08-04T22:41:33.654Z,23.60
2022-08-04T22:44:01.250Z,23.60
2022-08-04T22:46:30.038Z,23.50
2022-08-04T22:48:57.491Z,23.50
2022-08-04T22:51:24.263Z,23.40
2022-08-04T22:53:54.930Z,23.40
2022-08-04T22:56:37.928Z,23.30
2022-08-04T22:59:06.602Z,23.20
2022-08-04T23:01:58.976Z,23.20
2022-08-04T23:04:23.831Z,23.10
2022-08-04T23:06:50.658Z,23.10
2022-08-04T23:09:17.416Z,23.00
2022-08-04T23:11:44.270Z,23.00
2022-08-04T23:14:11.361Z,22.90
2022-08-04T23:16:40.841Z,22.90
2022-08-04T23:19:15.356Z,22.90
2022-08-04T23:21:47.873Z,22.80
2022-08-04T23:24:29.777Z,22.80
2022-08-04T23:26:57.620Z,22.70
2022-08-04T23:29:25.259Z,22.60
2022-08-04T23:32:00.189Z,22.60
2022-08-04T23:34:29.173Z,22.50
2022-08-04T23:36:56.490Z,22.40
2022-08-04T23:39:26.077Z,22.40
2022-08-04T23:42:15.050Z,22.40
2022-08-04T23:44:47.987Z,22.40
2022-08-04T23:48:18.446Z,22.40
2022-08-04T23:50:01.303Z,22.30
2022-08-04T23:52:30.124Z,22.40
2022-08-04T23:55:00.746Z,22.40
2022-08-04T23:57:31.115Z,22.30
